Kiamichi, Oklahoma
Current Conditions -  °F | °C
As of 9:35 PM on Saturday 22 Nov 2014 (Local Time) from KRKR Reporting Station
Overcast Overcast  
Wind Chill: 56°   Ceiling: 3200
Heat Index: 56°   Visibility: 10mi
Dew Point: 53°   Wind: 6mph
Humidity: 88%   Direction: 100°E
Pressure: 29.83"   Gusts: NA
Location:  34.5987°N, 94.9886°W
Report Text: KRKR 230335Z AUTO 10005KT 10SM BKN032 OVC046 14/12 A2983 RMK AO2 T01350115
Loading
Personal Weather Stations






























Interactive Weather Map New forecast layout! Learn more

10-Day Weather Forecast

Advertisements
Track Severe Weather on mobile